sensor_id;sensor_type;location;lat;lon;timestamp;P1;durP1;ratioP1;P2;durP2;ratioP2
7104;SDS011;3594;42.152;24.714;2022-09-30T00:02:07;2.95;;;2.20;;
7104;SDS011;3594;42.152;24.714;2022-09-30T00:04:36;3.03;;;2.42;;
7104;SDS011;3594;42.152;24.714;2022-09-30T00:07:01;2.70;;;1.90;;
7104;SDS011;3594;42.152;24.714;2022-09-30T00:09:27;3.35;;;2.17;;
7104;SDS011;3594;42.152;24.714;2022-09-30T00:11:52;2.70;;;2.30;;
7104;SDS011;3594;42.152;24.714;2022-09-30T00:14:19;3.95;;;2.22;;
7104;SDS011;3594;42.152;24.714;2022-09-30T00:16:46;4.20;;;2.78;;
7104;SDS011;3594;42.152;24.714;2022-09-30T00:19:13;3.15;;;2.13;;
7104;SDS011;3594;42.152;24.714;2022-09-30T00:21:39;5.28;;;1.85;;
7104;SDS011;3594;42.152;24.714;2022-09-30T00:24:04;2.80;;;2.20;;
7104;SDS011;3594;42.152;24.714;2022-09-30T00:26:30;2.38;;;2.00;;
7104;SDS011;3594;42.152;24.714;2022-09-30T00:28:58;3.22;;;2.20;;
7104;SDS011;3594;42.152;24.714;2022-09-30T00:31:25;4.05;;;2.47;;
7104;SDS011;3594;42.152;24.714;2022-09-30T00:33:52;2.70;;;1.90;;
7104;SDS011;3594;42.152;24.714;2022-09-30T00:39:08;2.70;;;2.08;;
7104;SDS011;3594;42.152;24.714;2022-09-30T00:41:36;3.60;;;2.40;;
7104;SDS011;3594;42.152;24.714;2022-09-30T00:44:37;2.78;;;2.50;;
7104;SDS011;3594;42.152;24.714;2022-09-30T00:49:57;3.05;;;2.40;;
7104;SDS011;3594;42.152;24.714;2022-09-30T00:52:27;3.22;;;2.05;;
7104;SDS011;3594;42.152;24.714;2022-09-30T00:54:54;2.80;;;1.98;;
7104;SDS011;3594;42.152;24.714;2022-09-30T00:57:22;3.38;;;2.28;;
7104;SDS011;3594;42.152;24.714;2022-09-30T00:59:47;3.00;;;2.22;;
7104;SDS011;3594;42.152;24.714;2022-09-30T01:02:15;3.28;;;2.28;;
7104;SDS011;3594;42.152;24.714;2022-09-30T01:04:41;4.90;;;2.47;;
7104;SDS011;3594;42.152;24.714;2022-09-30T01:07:09;3.78;;;2.15;;
7104;SDS011;3594;42.152;24.714;2022-09-30T01:09:37;4.30;;;2.25;;
7104;SDS011;3594;42.152;24.714;2022-09-30T01:12:15;2.92;;;2.05;;
7104;SDS011;3594;42.152;24.714;2022-09-30T01:14:45;4.20;;;2.38;;
7104;SDS011;3594;42.152;24.714;2022-09-30T01:20:47;3.60;;;2.40;;
7104;SDS011;3594;42.152;24.714;2022-09-30T01:29:27;2.85;;;2.20;;
7104;SDS011;3594;42.152;24.714;2022-09-30T01:46:10;5.35;;;2.42;;
7104;SDS011;3594;42.152;24.714;2022-09-30T01:48:43;4.68;;;2.53;;
7104;SDS011;3594;42.152;24.714;2022-09-30T01:51:12;2.90;;;2.42;;
7104;SDS011;3594;42.152;24.714;2022-09-30T01:53:46;3.65;;;2.53;;
7104;SDS011;3594;42.152;24.714;2022-09-30T02:02:12;3.45;;;2.30;;
7104;SDS011;3594;42.152;24.714;2022-09-30T02:04:54;3.58;;;2.10;;
7104;SDS011;3594;42.152;24.714;2022-09-30T02:07:31;5.85;;;2.67;;
7104;SDS011;3594;42.152;24.714;2022-09-30T02:10:09;4.25;;;2.75;;
7104;SDS011;3594;42.152;24.714;2022-09-30T02:12:41;3.72;;;2.33;;
7104;SDS011;3594;42.152;24.714;2022-09-30T02:15:14;4.05;;;2.47;;
7104;SDS011;3594;42.152;24.714;2022-09-30T02:17:48;2.63;;;2.10;;
7104;SDS011;3594;42.152;24.714;2022-09-30T02:20:19;5.25;;;2.80;;
7104;SDS011;3594;42.152;24.714;2022-09-30T02:22:49;6.65;;;2.33;;
7104;SDS011;3594;42.152;24.714;2022-09-30T02:25:32;2.83;;;1.95;;
7104;SDS011;3594;42.152;24.714;2022-09-30T02:28:03;3.25;;;2.72;;
7104;SDS011;3594;42.152;24.714;2022-09-30T02:30:33;3.85;;;2.72;;
7104;SDS011;3594;42.152;24.714;2022-09-30T02:33:01;2.83;;;2.28;;
7104;SDS011;3594;42.152;24.714;2022-09-30T02:35:37;3.13;;;2.40;;
7104;SDS011;3594;42.152;24.714;2022-09-30T02:38:14;3.10;;;2.20;;
7104;SDS011;3594;42.152;24.714;2022-09-30T02:40:49;3.40;;;2.60;;
7104;SDS011;3594;42.152;24.714;2022-09-30T02:43:20;3.63;;;2.30;;
7104;SDS011;3594;42.152;24.714;2022-09-30T02:45:59;3.42;;;2.53;;
7104;SDS011;3594;42.152;24.714;2022-09-30T02:48:44;3.22;;;2.15;;
7104;SDS011;3594;42.152;24.714;2022-09-30T02:54:23;3.38;;;2.10;;
7104;SDS011;3594;42.152;24.714;2022-09-30T02:56:58;3.50;;;2.40;;
7104;SDS011;3594;42.152;24.714;2022-09-30T02:59:34;3.38;;;2.65;;
7104;SDS011;3594;42.152;24.714;2022-09-30T03:02:00;3.40;;;2.65;;
7104;SDS011;3594;42.152;24.714;2022-09-30T03:04:26;3.30;;;2.47;;
7104;SDS011;3594;42.152;24.714;2022-09-30T03:06:54;3.58;;;2.58;;
7104;SDS011;3594;42.152;24.714;2022-09-30T03:09:24;4.80;;;2.42;;
7104;SDS011;3594;42.152;24.714;2022-09-30T03:11:51;3.28;;;2.28;;
7104;SDS011;3594;42.152;24.714;2022-09-30T03:19:54;3.72;;;2.38;;
7104;SDS011;3594;42.152;24.714;2022-09-30T03:38:40;4.40;;;2.65;;
7104;SDS011;3594;42.152;24.714;2022-09-30T03:46:50;3.05;;;2.50;;
7104;SDS011;3594;42.152;24.714;2022-09-30T03:49:29;5.25;;;3.22;;
7104;SDS011;3594;42.152;24.714;2022-09-30T03:51:59;6.13;;;2.55;;
7104;SDS011;3594;42.152;24.714;2022-09-30T03:54:30;4.90;;;3.00;;
7104;SDS011;3594;42.152;24.714;2022-09-30T03:56:55;4.43;;;3.03;;
7104;SDS011;3594;42.152;24.714;2022-09-30T03:59:22;3.80;;;3.08;;
7104;SDS011;3594;42.152;24.714;2022-09-30T04:01:49;4.38;;;2.65;;
7104;SDS011;3594;42.152;24.714;2022-09-30T04:04:16;3.38;;;2.42;;
7104;SDS011;3594;42.152;24.714;2022-09-30T04:06:42;3.80;;;2.72;;
7104;SDS011;3594;42.152;24.714;2022-09-30T04:09:07;3.33;;;2.40;;
7104;SDS011;3594;42.152;24.714;2022-09-30T04:11:33;2.85;;;2.40;;
7104;SDS011;3594;42.152;24.714;2022-09-30T04:13:59;7.10;;;2.95;;
7104;SDS011;3594;42.152;24.714;2022-09-30T04:16:27;4.78;;;2.90;;
7104;SDS011;3594;42.152;24.714;2022-09-30T04:18:54;3.80;;;2.88;;
7104;SDS011;3594;42.152;24.714;2022-09-30T04:21:21;7.03;;;3.50;;
7104;SDS011;3594;42.152;24.714;2022-09-30T04:23:46;6.43;;;3.33;;
7104;SDS011;3594;42.152;24.714;2022-09-30T04:26:13;4.82;;;2.90;;
7104;SDS011;3594;42.152;24.714;2022-09-30T04:28:39;3.92;;;3.28;;
7104;SDS011;3594;42.152;24.714;2022-09-30T04:31:05;5.60;;;3.08;;
7104;SDS011;3594;42.152;24.714;2022-09-30T04:33:32;4.95;;;2.90;;
7104;SDS011;3594;42.152;24.714;2022-09-30T04:35:58;3.38;;;2.50;;
7104;SDS011;3594;42.152;24.714;2022-09-30T04:38:25;3.38;;;2.55;;
7104;SDS011;3594;42.152;24.714;2022-09-30T04:40:51;4.60;;;3.30;;
7104;SDS011;3594;42.152;24.714;2022-09-30T04:43:19;4.25;;;2.97;;
7104;SDS011;3594;42.152;24.714;2022-09-30T04:45:47;6.63;;;3.42;;
7104;SDS011;3594;42.152;24.714;2022-09-30T04:48:13;4.60;;;3.35;;
7104;SDS011;3594;42.152;24.714;2022-09-30T04:50:40;4.65;;;2.80;;
7104;SDS011;3594;42.152;24.714;2022-09-30T04:53:07;4.72;;;2.88;;
7104;SDS011;3594;42.152;24.714;2022-09-30T04:55:33;7.28;;;3.35;;
7104;SDS011;3594;42.152;24.714;2022-09-30T04:57:58;3.58;;;2.53;;
7104;SDS011;3594;42.152;24.714;2022-09-30T05:00:23;7.22;;;3.38;;
7104;SDS011;3594;42.152;24.714;2022-09-30T05:02:50;5.57;;;3.08;;
7104;SDS011;3594;42.152;24.714;2022-09-30T05:05:16;4.57;;;2.90;;
7104;SDS011;3594;42.152;24.714;2022-09-30T05:07:41;5.10;;;3.10;;
7104;SDS011;3594;42.152;24.714;2022-09-30T05:10:08;4.57;;;2.90;;
7104;SDS011;3594;42.152;24.714;2022-09-30T05:12:35;4.63;;;3.25;;
7104;SDS011;3594;42.152;24.714;2022-09-30T05:15:01;5.70;;;3.67;;
7104;SDS011;3594;42.152;24.714;2022-09-30T05:17:28;5.70;;;3.40;;
7104;SDS011;3594;42.152;24.714;2022-09-30T05:19:55;6.95;;;3.75;;
7104;SDS011;3594;42.152;24.714;2022-09-30T05:22:21;4.40;;;2.60;;
7104;SDS011;3594;42.152;24.714;2022-09-30T05:24:48;5.25;;;3.40;;
7104;SDS011;3594;42.152;24.714;2022-09-30T05:27:14;4.95;;;3.17;;
7104;SDS011;3594;42.152;24.714;2022-09-30T05:29:40;4.78;;;2.80;;
7104;SDS011;3594;42.152;24.714;2022-09-30T05:32:06;8.27;;;2.78;;
7104;SDS011;3594;42.152;24.714;2022-09-30T05:34:32;3.97;;;2.90;;
7104;SDS011;3594;42.152;24.714;2022-09-30T05:36:57;3.88;;;2.75;;
7104;SDS011;3594;42.152;24.714;2022-09-30T05:39:23;3.88;;;2.95;;
7104;SDS011;3594;42.152;24.714;2022-09-30T05:41:48;4.72;;;3.20;;
7104;SDS011;3594;42.152;24.714;2022-09-30T05:44:14;4.40;;;3.13;;
7104;SDS011;3594;42.152;24.714;2022-09-30T05:46:39;3.80;;;2.63;;
7104;SDS011;3594;42.152;24.714;2022-09-30T05:49:04;4.88;;;2.95;;
7104;SDS011;3594;42.152;24.714;2022-09-30T05:51:30;6.65;;;3.08;;
7104;SDS011;3594;42.152;24.714;2022-09-30T05:53:55;3.95;;;2.72;;
7104;SDS011;3594;42.152;24.714;2022-09-30T05:56:21;3.65;;;2.67;;
7104;SDS011;3594;42.152;24.714;2022-09-30T05:58:46;3.88;;;2.47;;
7104;SDS011;3594;42.152;24.714;2022-09-30T06:01:12;5.70;;;2.90;;
7104;SDS011;3594;42.152;24.714;2022-09-30T06:03:40;3.13;;;2.65;;
7104;SDS011;3594;42.152;24.714;2022-09-30T06:06:07;3.30;;;2.30;;
7104;SDS011;3594;42.152;24.714;2022-09-30T06:08:33;3.88;;;2.85;;
7104;SDS011;3594;42.152;24.714;2022-09-30T06:10:58;5.28;;;2.75;;
7104;SDS011;3594;42.152;24.714;2022-09-30T06:13:24;3.90;;;2.83;;
7104;SDS011;3594;42.152;24.714;2022-09-30T06:15:54;4.88;;;2.90;;
7104;SDS011;3594;42.152;24.714;2022-09-30T06:18:24;5.15;;;2.80;;
7104;SDS011;3594;42.152;24.714;2022-09-30T06:20:51;3.85;;;2.45;;
7104;SDS011;3594;42.152;24.714;2022-09-30T06:23:20;5.30;;;2.80;;
7104;SDS011;3594;42.152;24.714;2022-09-30T06:25:53;4.53;;;2.70;;
7104;SDS011;3594;42.152;24.714;2022-09-30T06:28:19;4.75;;;2.78;;
7104;SDS011;3594;42.152;24.714;2022-09-30T06:30:46;5.13;;;2.90;;
7104;SDS011;3594;42.152;24.714;2022-09-30T06:33:11;4.82;;;2.67;;
7104;SDS011;3594;42.152;24.714;2022-09-30T06:35:37;3.50;;;2.67;;
7104;SDS011;3594;42.152;24.714;2022-09-30T06:38:06;4.15;;;2.60;;
7104;SDS011;3594;42.152;24.714;2022-09-30T06:40:32;5.07;;;3.13;;
7104;SDS011;3594;42.152;24.714;2022-09-30T06:42:59;3.58;;;2.60;;
7104;SDS011;3594;42.152;24.714;2022-09-30T06:45:26;3.97;;;2.80;;
7104;SDS011;3594;42.152;24.714;2022-09-30T06:47:58;3.50;;;2.50;;
7104;SDS011;3594;42.152;24.714;2022-09-30T06:50:26;5.55;;;2.95;;
7104;SDS011;3594;42.152;24.714;2022-09-30T06:52:51;3.78;;;2.70;;
7104;SDS011;3594;42.152;24.714;2022-09-30T06:55:21;6.35;;;2.63;;
7104;SDS011;3594;42.152;24.714;2022-09-30T06:57:48;3.92;;;2.60;;
7104;SDS011;3594;42.152;24.714;2022-09-30T07:00:13;3.85;;;2.45;;
7104;SDS011;3594;42.152;24.714;2022-09-30T07:02:41;3.22;;;2.10;;
7104;SDS011;3594;42.152;24.714;2022-09-30T07:05:07;3.30;;;2.17;;
7104;SDS011;3594;42.152;24.714;2022-09-30T07:07:34;3.95;;;2.25;;
7104;SDS011;3594;42.152;24.714;2022-09-30T07:10:00;3.97;;;2.15;;
7104;SDS011;3594;42.152;24.714;2022-09-30T07:12:27;3.00;;;2.00;;
7104;SDS011;3594;42.152;24.714;2022-09-30T07:14:52;2.38;;;1.92;;
7104;SDS011;3594;42.152;24.714;2022-09-30T07:17:19;3.30;;;2.33;;
7104;SDS011;3594;42.152;24.714;2022-09-30T07:19:45;3.20;;;2.30;;
7104;SDS011;3594;42.152;24.714;2022-09-30T07:22:10;3.53;;;2.05;;
7104;SDS011;3594;42.152;24.714;2022-09-30T07:24:51;3.45;;;2.20;;
7104;SDS011;3594;42.152;24.714;2022-09-30T07:27:17;3.53;;;2.13;;
7104;SDS011;3594;42.152;24.714;2022-09-30T07:29:43;4.00;;;2.33;;
7104;SDS011;3594;42.152;24.714;2022-09-30T07:32:09;4.38;;;2.53;;
7104;SDS011;3594;42.152;24.714;2022-09-30T07:34:35;3.22;;;2.30;;
7104;SDS011;3594;42.152;24.714;2022-09-30T07:37:01;2.10;;;1.63;;
7104;SDS011;3594;42.152;24.714;2022-09-30T07:39:27;2.75;;;2.20;;
7104;SDS011;3594;42.152;24.714;2022-09-30T07:41:53;3.72;;;2.00;;
7104;SDS011;3594;42.152;24.714;2022-09-30T07:44:18;2.53;;;1.77;;
7104;SDS011;3594;42.152;24.714;2022-09-30T07:46:45;5.75;;;2.35;;
7104;SDS011;3594;42.152;24.714;2022-09-30T07:49:17;3.92;;;2.25;;
7104;SDS011;3594;42.152;24.714;2022-09-30T07:52:03;5.72;;;2.30;;
7104;SDS011;3594;42.152;24.714;2022-09-30T07:54:31;3.05;;;2.42;;
7104;SDS011;3594;42.152;24.714;2022-09-30T07:56:58;3.85;;;2.50;;
7104;SDS011;3594;42.152;24.714;2022-09-30T07:59:37;2.55;;;2.25;;
7104;SDS011;3594;42.152;24.714;2022-09-30T08:02:04;3.53;;;2.50;;
7104;SDS011;3594;42.152;24.714;2022-09-30T08:04:32;4.07;;;2.30;;
7104;SDS011;3594;42.152;24.714;2022-09-30T08:06:58;3.40;;;2.60;;
7104;SDS011;3594;42.152;24.714;2022-09-30T08:09:26;6.28;;;3.03;;
7104;SDS011;3594;42.152;24.714;2022-09-30T08:11:53;6.30;;;2.78;;
7104;SDS011;3594;42.152;24.714;2022-09-30T08:14:22;2.63;;;2.15;;
7104;SDS011;3594;42.152;24.714;2022-09-30T08:16:50;3.30;;;2.38;;
7104;SDS011;3594;42.152;24.714;2022-09-30T08:19:20;4.07;;;2.50;;
7104;SDS011;3594;42.152;24.714;2022-09-30T08:21:46;3.08;;;2.45;;
7104;SDS011;3594;42.152;24.714;2022-09-30T08:24:13;3.22;;;2.60;;
7104;SDS011;3594;42.152;24.714;2022-09-30T08:26:39;3.50;;;2.35;;
7104;SDS011;3594;42.152;24.714;2022-09-30T08:29:05;3.55;;;2.42;;
7104;SDS011;3594;42.152;24.714;2022-09-30T08:31:31;3.05;;;2.08;;
7104;SDS011;3594;42.152;24.714;2022-09-30T08:33:59;3.58;;;2.53;;
7104;SDS011;3594;42.152;24.714;2022-09-30T08:36:27;2.92;;;2.30;;
7104;SDS011;3594;42.152;24.714;2022-09-30T08:38:53;3.53;;;2.25;;
7104;SDS011;3594;42.152;24.714;2022-09-30T08:52:59;5.50;;;2.90;;
7104;SDS011;3594;42.152;24.714;2022-09-30T08:55:39;4.32;;;3.25;;
7104;SDS011;3594;42.152;24.714;2022-09-30T08:58:14;3.03;;;2.15;;
7104;SDS011;3594;42.152;24.714;2022-09-30T09:00:49;3.65;;;2.47;;
7104;SDS011;3594;42.152;24.714;2022-09-30T09:03:19;3.63;;;2.10;;
7104;SDS011;3594;42.152;24.714;2022-09-30T09:05:53;3.45;;;2.67;;
7104;SDS011;3594;42.152;24.714;2022-09-30T09:08:28;3.72;;;2.47;;
7104;SDS011;3594;42.152;24.714;2022-09-30T09:11:32;3.38;;;2.38;;
7104;SDS011;3594;42.152;24.714;2022-09-30T09:20:02;3.35;;;2.55;;
7104;SDS011;3594;42.152;24.714;2022-09-30T09:22:37;5.00;;;2.50;;
7104;SDS011;3594;42.152;24.714;2022-09-30T09:25:03;3.17;;;2.10;;
7104;SDS011;3594;42.152;24.714;2022-09-30T09:32:34;4.43;;;2.83;;
7104;SDS011;3594;42.152;24.714;2022-09-30T09:35:05;5.65;;;2.60;;
7104;SDS011;3594;42.152;24.714;2022-09-30T09:45:52;3.08;;;2.22;;
7104;SDS011;3594;42.152;24.714;2022-09-30T09:48:24;3.85;;;2.40;;
7104;SDS011;3594;42.152;24.714;2022-09-30T09:54:00;3.42;;;2.20;;
7104;SDS011;3594;42.152;24.714;2022-09-30T09:56:29;2.50;;;2.13;;
7104;SDS011;3594;42.152;24.714;2022-09-30T09:59:04;5.63;;;2.40;;
7104;SDS011;3594;42.152;24.714;2022-09-30T10:01:44;3.13;;;2.08;;
7104;SDS011;3594;42.152;24.714;2022-09-30T10:04:11;2.78;;;2.20;;
7104;SDS011;3594;42.152;24.714;2022-09-30T10:09:19;2.28;;;1.80;;
7104;SDS011;3594;42.152;24.714;2022-09-30T10:11:48;4.28;;;2.10;;
7104;SDS011;3594;42.152;24.714;2022-09-30T10:14:18;3.25;;;2.33;;
7104;SDS011;3594;42.152;24.714;2022-09-30T10:16:45;4.15;;;2.17;;
7104;SDS011;3594;42.152;24.714;2022-09-30T10:19:22;3.42;;;2.47;;
7104;SDS011;3594;42.152;24.714;2022-09-30T10:21:55;3.53;;;2.03;;
7104;SDS011;3594;42.152;24.714;2022-09-30T10:24:38;3.13;;;2.08;;
7104;SDS011;3594;42.152;24.714;2022-09-30T10:29:58;3.60;;;2.40;;
7104;SDS011;3594;42.152;24.714;2022-09-30T10:32:23;6.30;;;2.55;;
7104;SDS011;3594;42.152;24.714;2022-09-30T10:34:53;3.13;;;2.33;;
7104;SDS011;3594;42.152;24.714;2022-09-30T10:37:24;2.97;;;2.17;;
7104;SDS011;3594;42.152;24.714;2022-09-30T10:40:00;4.55;;;2.03;;
7104;SDS011;3594;42.152;24.714;2022-09-30T10:42:31;3.45;;;2.33;;
7104;SDS011;3594;42.152;24.714;2022-09-30T10:45:04;3.53;;;2.25;;
7104;SDS011;3594;42.152;24.714;2022-09-30T10:47:34;3.45;;;2.10;;
7104;SDS011;3594;42.152;24.714;2022-09-30T10:50:10;2.78;;;2.08;;
7104;SDS011;3594;42.152;24.714;2022-09-30T10:52:46;3.47;;;2.30;;
7104;SDS011;3594;42.152;24.714;2022-09-30T10:57:47;2.72;;;2.25;;
7104;SDS011;3594;42.152;24.714;2022-09-30T11:00:17;2.88;;;2.15;;
7104;SDS011;3594;42.152;24.714;2022-09-30T11:03:05;2.30;;;2.08;;
7104;SDS011;3594;42.152;24.714;2022-09-30T11:05:40;2.75;;;1.98;;
7104;SDS011;3594;42.152;24.714;2022-09-30T11:19:02;4.25;;;2.55;;
7104;SDS011;3594;42.152;24.714;2022-09-30T11:43:17;2.95;;;2.00;;
7104;SDS011;3594;42.152;24.714;2022-09-30T11:48:53;2.95;;;2.00;;
7104;SDS011;3594;42.152;24.714;2022-09-30T11:51:24;3.35;;;2.05;;
7104;SDS011;3594;42.152;24.714;2022-09-30T11:56:37;3.20;;;2.20;;
7104;SDS011;3594;42.152;24.714;2022-09-30T11:59:22;2.35;;;1.90;;
7104;SDS011;3594;42.152;24.714;2022-09-30T12:01:52;2.75;;;1.80;;
7104;SDS011;3594;42.152;24.714;2022-09-30T12:04:29;2.95;;;2.10;;
7104;SDS011;3594;42.152;24.714;2022-09-30T12:07:18;2.88;;;2.10;;
7104;SDS011;3594;42.152;24.714;2022-09-30T12:09:55;2.97;;;1.90;;
7104;SDS011;3594;42.152;24.714;2022-09-30T12:12:24;3.78;;;2.63;;
7104;SDS011;3594;42.152;24.714;2022-09-30T12:14:50;3.55;;;2.20;;
7104;SDS011;3594;42.152;24.714;2022-09-30T12:25:54;3.60;;;1.95;;
7104;SDS011;3594;42.152;24.714;2022-09-30T12:28:35;1.98;;;1.70;;
7104;SDS011;3594;42.152;24.714;2022-09-30T12:42:32;2.40;;;1.92;;
7104;SDS011;3594;42.152;24.714;2022-09-30T12:47:50;3.17;;;1.80;;
7104;SDS011;3594;42.152;24.714;2022-09-30T12:50:22;2.65;;;2.08;;
7104;SDS011;3594;42.152;24.714;2022-09-30T12:52:52;2.25;;;1.90;;
7104;SDS011;3594;42.152;24.714;2022-09-30T12:55:28;3.42;;;2.00;;
7104;SDS011;3594;42.152;24.714;2022-09-30T12:57:57;2.95;;;2.05;;
7104;SDS011;3594;42.152;24.714;2022-09-30T13:00:28;4.38;;;2.20;;
7104;SDS011;3594;42.152;24.714;2022-09-30T13:03:08;2.85;;;2.03;;
7104;SDS011;3594;42.152;24.714;2022-09-30T13:08:08;2.92;;;2.20;;
7104;SDS011;3594;42.152;24.714;2022-09-30T13:10:54;2.25;;;1.90;;
7104;SDS011;3594;42.152;24.714;2022-09-30T13:13:26;3.85;;;2.50;;
7104;SDS011;3594;42.152;24.714;2022-09-30T13:15:56;4.05;;;2.92;;
7104;SDS011;3594;42.152;24.714;2022-09-30T13:21:17;4.18;;;2.60;;
7104;SDS011;3594;42.152;24.714;2022-09-30T13:23:49;4.07;;;2.50;;
7104;SDS011;3594;42.152;24.714;2022-09-30T13:28:54;3.40;;;2.38;;
7104;SDS011;3594;42.152;24.714;2022-09-30T13:34:24;5.97;;;2.65;;
7104;SDS011;3594;42.152;24.714;2022-09-30T13:36:58;4.07;;;2.78;;
7104;SDS011;3594;42.152;24.714;2022-09-30T13:44:53;3.17;;;2.40;;
7104;SDS011;3594;42.152;24.714;2022-09-30T13:47:24;4.38;;;2.28;;
7104;SDS011;3594;42.152;24.714;2022-09-30T13:49:53;3.97;;;2.13;;
7104;SDS011;3594;42.152;24.714;2022-09-30T13:52:30;6.43;;;2.40;;
7104;SDS011;3594;42.152;24.714;2022-09-30T13:55:01;3.67;;;2.20;;
7104;SDS011;3594;42.152;24.714;2022-09-30T14:00:53;6.50;;;2.50;;
7104;SDS011;3594;42.152;24.714;2022-09-30T14:17:42;2.90;;;2.20;;
7104;SDS011;3594;42.152;24.714;2022-09-30T14:23:18;3.00;;;2.20;;
7104;SDS011;3594;42.152;24.714;2022-09-30T14:25:48;4.53;;;2.40;;
7104;SDS011;3594;42.152;24.714;2022-09-30T14:28:18;3.00;;;2.35;;
7104;SDS011;3594;42.152;24.714;2022-09-30T14:31:03;2.92;;;2.38;;
7104;SDS011;3594;42.152;24.714;2022-09-30T14:33:32;2.38;;;2.13;;
7104;SDS011;3594;42.152;24.714;2022-09-30T14:36:02;3.20;;;2.50;;
7104;SDS011;3594;42.152;24.714;2022-09-30T14:38:35;3.13;;;2.08;;
7104;SDS011;3594;42.152;24.714;2022-09-30T14:41:05;2.88;;;1.83;;
7104;SDS011;3594;42.152;24.714;2022-09-30T14:43:39;2.72;;;2.13;;
7104;SDS011;3594;42.152;24.714;2022-09-30T14:46:09;3.15;;;2.08;;
7104;SDS011;3594;42.152;24.714;2022-09-30T14:48:42;2.60;;;1.90;;
7104;SDS011;3594;42.152;24.714;2022-09-30T14:51:13;3.05;;;2.15;;
7104;SDS011;3594;42.152;24.714;2022-09-30T14:53:51;2.97;;;2.15;;
7104;SDS011;3594;42.152;24.714;2022-09-30T14:56:18;3.92;;;2.45;;
7104;SDS011;3594;42.152;24.714;2022-09-30T14:58:46;2.70;;;2.10;;
7104;SDS011;3594;42.152;24.714;2022-09-30T15:01:15;2.53;;;2.08;;
7104;SDS011;3594;42.152;24.714;2022-09-30T15:03:42;3.10;;;2.42;;
7104;SDS011;3594;42.152;24.714;2022-09-30T15:06:20;2.85;;;2.13;;
7104;SDS011;3594;42.152;24.714;2022-09-30T15:08:47;3.38;;;2.15;;
7104;SDS011;3594;42.152;24.714;2022-09-30T15:11:18;3.20;;;2.33;;
7104;SDS011;3594;42.152;24.714;2022-09-30T15:13:45;3.35;;;2.45;;
7104;SDS011;3594;42.152;24.714;2022-09-30T15:16:31;2.70;;;2.05;;
7104;SDS011;3594;42.152;24.714;2022-09-30T15:18:58;4.18;;;2.58;;
7104;SDS011;3594;42.152;24.714;2022-09-30T15:21:25;4.57;;;2.78;;
7104;SDS011;3594;42.152;24.714;2022-09-30T15:23:55;5.32;;;2.70;;
7104;SDS011;3594;42.152;24.714;2022-09-30T15:26:23;3.05;;;2.15;;
7104;SDS011;3594;42.152;24.714;2022-09-30T15:28:50;2.70;;;2.30;;
7104;SDS011;3594;42.152;24.714;2022-09-30T15:31:25;4.43;;;2.60;;
7104;SDS011;3594;42.152;24.714;2022-09-30T15:34:03;3.83;;;2.40;;
7104;SDS011;3594;42.152;24.714;2022-09-30T15:36:36;3.58;;;2.45;;
7104;SDS011;3594;42.152;24.714;2022-09-30T15:39:02;3.40;;;2.40;;
7104;SDS011;3594;42.152;24.714;2022-09-30T15:41:36;3.78;;;2.47;;
7104;SDS011;3594;42.152;24.714;2022-09-30T15:44:04;4.30;;;2.65;;
7104;SDS011;3594;42.152;24.714;2022-09-30T15:46:41;3.05;;;2.30;;
7104;SDS011;3594;42.152;24.714;2022-09-30T15:55:01;6.93;;;3.10;;
7104;SDS011;3594;42.152;24.714;2022-09-30T16:03:07;4.70;;;2.85;;
7104;SDS011;3594;42.152;24.714;2022-09-30T16:05:48;7.50;;;3.90;;
7104;SDS011;3594;42.152;24.714;2022-09-30T16:08:18;5.53;;;3.97;;
7104;SDS011;3594;42.152;24.714;2022-09-30T16:10:53;5.82;;;3.75;;
7104;SDS011;3594;42.152;24.714;2022-09-30T16:13:21;3.95;;;2.80;;
7104;SDS011;3594;42.152;24.714;2022-09-30T16:15:51;4.53;;;2.83;;
7104;SDS011;3594;42.152;24.714;2022-09-30T16:18:20;4.15;;;3.00;;
7104;SDS011;3594;42.152;24.714;2022-09-30T16:23:30;4.88;;;3.40;;
7104;SDS011;3594;42.152;24.714;2022-09-30T16:26:19;10.32;;;4.03;;
7104;SDS011;3594;42.152;24.714;2022-09-30T16:28:51;7.75;;;3.53;;
7104;SDS011;3594;42.152;24.714;2022-09-30T16:31:17;5.82;;;3.47;;
7104;SDS011;3594;42.152;24.714;2022-09-30T16:33:44;5.18;;;3.10;;
7104;SDS011;3594;42.152;24.714;2022-09-30T16:36:10;5.85;;;3.20;;
7104;SDS011;3594;42.152;24.714;2022-09-30T16:38:36;4.97;;;3.22;;
7104;SDS011;3594;42.152;24.714;2022-09-30T16:41:02;9.30;;;3.55;;
7104;SDS011;3594;42.152;24.714;2022-09-30T16:43:28;6.25;;;3.38;;
7104;SDS011;3594;42.152;24.714;2022-09-30T16:45:58;11.32;;;3.92;;
7104;SDS011;3594;42.152;24.714;2022-09-30T16:48:26;7.25;;;3.90;;
7104;SDS011;3594;42.152;24.714;2022-09-30T16:51:01;6.40;;;3.80;;
7104;SDS011;3594;42.152;24.714;2022-09-30T16:53:41;5.60;;;3.85;;
7104;SDS011;3594;42.152;24.714;2022-09-30T16:56:13;6.38;;;3.67;;
7104;SDS011;3594;42.152;24.714;2022-09-30T16:58:40;7.53;;;4.22;;
7104;SDS011;3594;42.152;24.714;2022-09-30T17:01:12;8.73;;;4.03;;
7104;SDS011;3594;42.152;24.714;2022-09-30T17:03:49;8.07;;;3.42;;
7104;SDS011;3594;42.152;24.714;2022-09-30T17:06:17;5.80;;;3.50;;
7104;SDS011;3594;42.152;24.714;2022-09-30T17:08:44;12.07;;;6.05;;
7104;SDS011;3594;42.152;24.714;2022-09-30T17:11:12;9.70;;;5.45;;
7104;SDS011;3594;42.152;24.714;2022-09-30T17:13:38;8.68;;;4.90;;
7104;SDS011;3594;42.152;24.714;2022-09-30T17:16:04;8.50;;;4.70;;
7104;SDS011;3594;42.152;24.714;2022-09-30T17:18:30;8.32;;;4.25;;
7104;SDS011;3594;42.152;24.714;2022-09-30T17:20:56;7.50;;;3.90;;
7104;SDS011;3594;42.152;24.714;2022-09-30T17:23:21;10.65;;;4.55;;
7104;SDS011;3594;42.152;24.714;2022-09-30T17:25:49;7.75;;;3.85;;
7104;SDS011;3594;42.152;24.714;2022-09-30T17:28:15;8.05;;;3.83;;
7104;SDS011;3594;42.152;24.714;2022-09-30T17:30:42;6.03;;;4.18;;
7104;SDS011;3594;42.152;24.714;2022-09-30T17:33:10;7.45;;;2.90;;
7104;SDS011;3594;42.152;24.714;2022-09-30T17:35:36;4.45;;;3.15;;
7104;SDS011;3594;42.152;24.714;2022-09-30T17:38:06;4.70;;;2.97;;
7104;SDS011;3594;42.152;24.714;2022-09-30T17:40:32;4.85;;;3.30;;
7104;SDS011;3594;42.152;24.714;2022-09-30T17:43:16;8.00;;;3.88;;
7104;SDS011;3594;42.152;24.714;2022-09-30T17:45:43;5.07;;;3.25;;
7104;SDS011;3594;42.152;24.714;2022-09-30T17:48:10;7.32;;;3.75;;
7104;SDS011;3594;42.152;24.714;2022-09-30T17:50:37;5.75;;;3.45;;
7104;SDS011;3594;42.152;24.714;2022-09-30T17:53:08;12.57;;;6.18;;
7104;SDS011;3594;42.152;24.714;2022-09-30T17:55:37;10.52;;;4.32;;
7104;SDS011;3594;42.152;24.714;2022-09-30T17:58:03;15.60;;;5.63;;
7104;SDS011;3594;42.152;24.714;2022-09-30T18:00:31;12.68;;;5.40;;
7104;SDS011;3594;42.152;24.714;2022-09-30T18:02:57;10.57;;;3.85;;
7104;SDS011;3594;42.152;24.714;2022-09-30T18:05:23;9.15;;;4.35;;
7104;SDS011;3594;42.152;24.714;2022-09-30T18:07:52;11.05;;;4.93;;
7104;SDS011;3594;42.152;24.714;2022-09-30T18:10:18;40.47;;;12.98;;
7104;SDS011;3594;42.152;24.714;2022-09-30T18:12:44;51.13;;;12.50;;
7104;SDS011;3594;42.152;24.714;2022-09-30T18:15:13;19.52;;;8.07;;
7104;SDS011;3594;42.152;24.714;2022-09-30T18:17:39;10.73;;;4.55;;
7104;SDS011;3594;42.152;24.714;2022-09-30T18:20:05;6.50;;;3.30;;
7104;SDS011;3594;42.152;24.714;2022-09-30T18:22:31;4.88;;;3.30;;
7104;SDS011;3594;42.152;24.714;2022-09-30T18:24:56;4.60;;;3.47;;
7104;SDS011;3594;42.152;24.714;2022-09-30T18:27:40;6.75;;;3.25;;
7104;SDS011;3594;42.152;24.714;2022-09-30T18:30:06;5.03;;;3.00;;
7104;SDS011;3594;42.152;24.714;2022-09-30T18:32:32;5.15;;;3.60;;
7104;SDS011;3594;42.152;24.714;2022-09-30T18:34:58;5.25;;;3.20;;
7104;SDS011;3594;42.152;24.714;2022-09-30T18:37:24;5.45;;;3.22;;
7104;SDS011;3594;42.152;24.714;2022-09-30T18:39:50;6.57;;;2.97;;
7104;SDS011;3594;42.152;24.714;2022-09-30T18:42:15;7.28;;;3.50;;
7104;SDS011;3594;42.152;24.714;2022-09-30T18:44:45;5.78;;;2.97;;
7104;SDS011;3594;42.152;24.714;2022-09-30T18:47:11;5.05;;;2.78;;
7104;SDS011;3594;42.152;24.714;2022-09-30T18:49:36;6.93;;;3.05;;
7104;SDS011;3594;42.152;24.714;2022-09-30T18:52:01;4.43;;;2.90;;
7104;SDS011;3594;42.152;24.714;2022-09-30T18:54:29;4.03;;;2.63;;
7104;SDS011;3594;42.152;24.714;2022-09-30T18:56:54;4.63;;;3.30;;